createdAt,value
2022-10-13T00:04:56.428Z,16.50
2022-10-13T00:09:58.305Z,16.40
2022-10-13T00:15:00.024Z,16.10
2022-10-13T00:20:02.093Z,16.10
2022-10-13T00:25:04.660Z,16.10
2022-10-13T00:30:06.914Z,16.30
2022-10-13T00:35:09.156Z,16.40
2022-10-13T00:40:11.362Z,16.30
2022-10-13T00:45:24.948Z,16.70
2022-10-13T00:50:33.576Z,16.20
2022-10-13T00:55:37.735Z,16.30
2022-10-13T01:00:39.512Z,16.10
2022-10-13T01:05:42.687Z,16.40
2022-10-13T01:11:03.305Z,16.20
2022-10-13T01:16:34.205Z,16.40
2022-10-13T01:22:10.345Z,16.30
2022-10-13T01:27:24.149Z,16.00
2022-10-13T01:32:50.428Z,16.20
2022-10-13T01:38:03.146Z,15.90
2022-10-13T01:43:11.676Z,15.90
2022-10-13T01:48:15.374Z,16.00
2022-10-13T01:53:18.385Z,16.10
2022-10-13T01:58:21.736Z,16.10
2022-10-13T02:03:43.746Z,16.30
2022-10-13T02:08:58.253Z,15.90
2022-10-13T02:14:02.951Z,15.70
2022-10-13T02:19:07.831Z,15.80
2022-10-13T02:24:09.842Z,15.90
2022-10-13T02:29:16.705Z,15.90
2022-10-13T02:34:18.372Z,15.80
2022-10-13T02:39:20.213Z,15.80
2022-10-13T02:44:22.139Z,15.80
2022-10-13T02:49:23.907Z,15.80
2022-10-13T02:54:25.638Z,15.90
2022-10-13T02:59:28.722Z,15.90
2022-10-13T03:04:30.445Z,15.40
2022-10-13T03:09:32.203Z,15.70
2022-10-13T03:14:34.148Z,15.80
2022-10-13T03:19:35.905Z,15.80
2022-10-13T03:24:37.535Z,15.70
2022-10-13T03:29:39.175Z,15.50
2022-10-13T03:34:40.838Z,15.90
2022-10-13T03:39:42.592Z,15.60
2022-10-13T03:44:44.282Z,15.60
2022-10-13T03:49:46.027Z,15.60
2022-10-13T03:54:47.696Z,15.50
2022-10-13T03:59:49.383Z,15.40
2022-10-13T04:04:51.120Z,15.90
2022-10-13T04:09:52.809Z,15.50
2022-10-13T04:14:54.494Z,15.50
2022-10-13T04:19:56.147Z,15.30
2022-10-13T04:24:57.830Z,15.60
2022-10-13T04:29:59.652Z,15.40
2022-10-13T04:35:01.432Z,15.30
2022-10-13T04:40:03.422Z,15.90
2022-10-13T04:45:05.571Z,15.50
2022-10-13T04:50:07.588Z,15.40
2022-10-13T04:55:09.448Z,15.60
2022-10-13T05:00:11.916Z,15.30
2022-10-13T05:05:13.642Z,15.50
2022-10-13T05:10:15.389Z,15.70
2022-10-13T05:15:17.095Z,15.40
2022-10-13T05:20:18.854Z,15.10
2022-10-13T05:25:20.541Z,15.00
2022-10-13T05:30:22.224Z,15.10
2022-10-13T05:35:24.611Z,15.10
2022-10-13T05:40:26.274Z,15.00
2022-10-13T05:45:31.994Z,15.20
2022-10-13T05:50:34.703Z,15.10
2022-10-13T05:55:36.413Z,14.80
2022-10-13T06:00:39.119Z,14.70
2022-10-13T06:05:42.316Z,14.90
2022-10-13T06:10:47.689Z,15.40
2022-10-13T06:15:49.535Z,15.00
2022-10-13T06:20:51.249Z,14.90
2022-10-13T06:25:53.952Z,14.90
2022-10-13T06:30:55.588Z,15.10
2022-10-13T06:36:00.527Z,15.10
2022-10-13T06:41:03.850Z,14.90
2022-10-13T06:46:05.739Z,15.50
2022-10-13T06:51:09.808Z,15.70
2022-10-13T06:56:12.399Z,15.40
2022-10-13T07:01:14.241Z,15.40
2022-10-13T07:06:16.516Z,15.60
2022-10-13T07:11:18.213Z,15.50
2022-10-13T07:16:19.906Z,15.80
2022-10-13T07:21:22.290Z,16.10
2022-10-13T07:26:24.020Z,16.40
2022-10-13T07:31:25.846Z,16.60
2022-10-13T07:36:27.563Z,17.00
2022-10-13T07:41:29.966Z,17.20
2022-10-13T07:46:31.630Z,17.40
2022-10-13T07:51:33.292Z,18.30
2022-10-13T07:56:35.004Z,18.20
2022-10-13T08:01:37.308Z,18.60
2022-10-13T08:06:42.164Z,18.90
2022-10-13T08:11:43.833Z,19.10
2022-10-13T08:16:48.762Z,19.50
2022-10-13T08:22:00.806Z,19.90
2022-10-13T08:27:02.520Z,19.40
2022-10-13T08:32:04.328Z,19.30
2022-10-13T08:37:06.314Z,19.60
2022-10-13T08:42:19.721Z,20.30
2022-10-13T08:47:29.979Z,20.20
2022-10-13T08:53:12.952Z,20.30
2022-10-13T08:58:25.619Z,20.40
2022-10-13T09:03:29.425Z,20.40
2022-10-13T09:08:54.896Z,20.60
2022-10-13T09:13:59.500Z,21.10
2022-10-13T09:19:18.599Z,20.70
2022-10-13T09:24:22.196Z,21.10
2022-10-13T09:29:27.150Z,20.90
2022-10-13T09:34:28.869Z,20.80
2022-10-13T09:39:32.044Z,21.30
2022-10-13T09:44:33.888Z,22.10
2022-10-13T09:49:38.515Z,22.30
2022-10-13T09:54:40.147Z,22.00
2022-10-13T09:59:48.528Z,21.50
2022-10-13T10:04:52.984Z,22.00
2022-10-13T10:09:59.660Z,22.50
2022-10-13T10:15:01.544Z,22.40
2022-10-13T10:20:28.320Z,22.20
2022-10-13T10:25:40.864Z,21.80
2022-10-13T10:31:06.721Z,21.80
2022-10-13T10:36:19.489Z,21.70
2022-10-13T10:41:36.278Z,22.70
2022-10-13T10:46:46.186Z,23.60
2022-10-13T10:51:48.961Z,23.30
2022-10-13T10:57:05.682Z,23.60
2022-10-13T11:02:07.294Z,23.60
2022-10-13T11:07:33.537Z,23.40
2022-10-13T11:12:52.263Z,23.10
2022-10-13T11:17:54.307Z,24.10
2022-10-13T11:22:58.754Z,24.50
2022-10-13T11:28:00.409Z,23.90
2022-10-13T11:33:02.103Z,22.90
2022-10-13T11:38:22.120Z,23.30
2022-10-13T11:43:31.843Z,22.90
2022-10-13T11:48:53.829Z,22.70
2022-10-13T11:54:10.595Z,23.40
2022-10-13T11:59:27.497Z,23.50
2022-10-13T12:04:29.236Z,23.50
2022-10-13T12:09:32.149Z,23.60
2022-10-13T12:14:42.434Z,23.10
2022-10-13T12:19:44.141Z,22.60
2022-10-13T12:25:01.432Z,23.40
2022-10-13T12:30:04.648Z,23.20
2022-10-13T12:35:27.656Z,22.80
2022-10-13T12:40:30.088Z,22.60
2022-10-13T12:45:34.305Z,22.70
2022-10-13T12:50:37.371Z,23.00
2022-10-13T12:55:57.979Z,23.10
2022-10-13T13:01:17.282Z,22.90
2022-10-13T13:06:18.899Z,23.20
2022-10-13T13:11:23.101Z,23.00
2022-10-13T13:16:24.870Z,22.70
2022-10-13T13:21:26.578Z,22.60
2022-10-13T13:26:28.265Z,22.50
2022-10-13T13:31:29.966Z,22.70
2022-10-13T13:36:31.999Z,22.70
2022-10-13T13:41:33.678Z,22.80
2022-10-13T13:46:35.353Z,22.60
2022-10-13T13:51:37.201Z,22.50
2022-10-13T13:56:38.865Z,22.30
2022-10-13T14:01:40.569Z,22.10
2022-10-13T14:06:42.290Z,22.10
2022-10-13T14:11:43.986Z,21.90
2022-10-13T14:16:45.719Z,21.90
2022-10-13T14:21:47.448Z,21.70
2022-10-13T14:26:49.099Z,21.40
2022-10-13T14:31:50.791Z,21.50
2022-10-13T14:36:52.658Z,21.80
2022-10-13T14:41:54.641Z,21.70
2022-10-13T14:46:56.312Z,21.60
2022-10-13T14:51:58.004Z,21.60
2022-10-13T14:56:59.694Z,21.60
2022-10-13T15:02:01.402Z,21.50
2022-10-13T15:07:03.116Z,21.60
2022-10-13T15:12:05.237Z,21.60
2022-10-13T15:17:06.909Z,21.50
2022-10-13T15:22:08.638Z,21.40
2022-10-13T15:27:10.313Z,21.20
2022-10-13T15:32:14.430Z,21.10
2022-10-13T15:37:16.135Z,21.20
2022-10-13T15:42:17.941Z,21.00
2022-10-13T15:47:21.629Z,21.00
2022-10-13T15:52:23.766Z,21.10
2022-10-13T15:57:25.750Z,21.00
2022-10-13T16:02:27.465Z,20.90
2022-10-13T16:07:29.172Z,20.80
2022-10-13T16:12:30.886Z,20.80
2022-10-13T16:17:33.170Z,20.80
2022-10-13T16:22:34.863Z,20.90
2022-10-13T16:27:40.404Z,20.70
2022-10-13T16:32:44.861Z,20.50
2022-10-13T16:37:46.721Z,20.40
2022-10-13T16:42:48.387Z,20.10
2022-10-13T16:47:53.103Z,19.80
2022-10-13T16:52:54.775Z,19.60
2022-10-13T16:57:56.652Z,19.50
2022-10-13T17:02:58.357Z,19.50
2022-10-13T17:08:00.036Z,19.60
2022-10-13T17:13:01.723Z,19.50
2022-10-13T17:18:03.434Z,19.20
2022-10-13T17:23:05.213Z,19.20
2022-10-13T17:28:06.898Z,19.10
2022-10-13T17:33:08.856Z,18.80
2022-10-13T17:38:10.532Z,18.70
2022-10-13T17:43:12.222Z,18.60
2022-10-13T17:48:14.645Z,18.80
2022-10-13T17:53:17.095Z,18.80
2022-10-13T17:58:18.823Z,18.80
2022-10-13T18:03:20.477Z,18.60
2022-10-13T18:08:22.124Z,18.50
2022-10-13T18:13:23.806Z,18.40
2022-10-13T18:18:25.488Z,18.40
2022-10-13T18:23:32.927Z,18.40
2022-10-13T18:28:36.698Z,18.40
2022-10-13T18:33:39.188Z,18.20
2022-10-13T18:38:40.920Z,18.20
2022-10-13T18:43:42.716Z,18.20
2022-10-13T18:48:44.416Z,18.20
2022-10-13T18:53:48.732Z,18.00
2022-10-13T18:58:55.669Z,18.00
2022-10-13T19:04:00.516Z,18.00
2022-10-13T19:09:08.280Z,17.90
2022-10-13T19:14:13.522Z,17.80
2022-10-13T19:19:15.254Z,17.90
2022-10-13T19:24:16.949Z,17.70
2022-10-13T19:29:18.616Z,18.10
2022-10-13T19:34:20.342Z,18.20
2022-10-13T19:39:24.095Z,18.10
2022-10-13T19:44:25.915Z,17.80
2022-10-13T19:49:27.666Z,17.70
2022-10-13T19:54:33.799Z,17.90
2022-10-13T19:59:36.856Z,17.80
2022-10-13T20:04:38.522Z,17.80
2022-10-13T20:09:40.234Z,17.80
2022-10-13T20:14:41.956Z,17.80
2022-10-13T20:19:43.706Z,17.90
2022-10-13T20:24:45.373Z,17.80
2022-10-13T20:29:47.067Z,17.80
2022-10-13T20:34:48.755Z,17.80
2022-10-13T20:39:50.404Z,17.70
2022-10-13T20:44:52.110Z,17.80
2022-10-13T20:49:53.888Z,18.00
2022-10-13T20:54:55.627Z,17.80
2022-10-13T20:59:57.307Z,17.70
2022-10-13T21:04:59.161Z,17.50
2022-10-13T21:10:00.843Z,17.40
2022-10-13T21:15:02.808Z,17.50
2022-10-13T21:20:04.925Z,17.80
2022-10-13T21:25:06.904Z,17.90
2022-10-13T21:30:09.172Z,17.50
2022-10-13T21:35:10.868Z,17.60
2022-10-13T21:40:12.619Z,17.40
2022-10-13T21:45:14.301Z,17.20
2022-10-13T21:50:16.109Z,17.30
2022-10-13T21:55:17.871Z,17.30
2022-10-13T22:00:19.963Z,17.40
2022-10-13T22:05:22.544Z,17.30
2022-10-13T22:10:24.238Z,17.40
2022-10-13T22:15:27.018Z,17.30
2022-10-13T22:20:28.793Z,17.20
2022-10-13T22:25:30.467Z,17.20
2022-10-13T22:30:32.110Z,17.10
2022-10-13T22:35:34.661Z,17.00
2022-10-13T22:40:36.354Z,16.80
2022-10-13T22:45:38.065Z,16.80
2022-10-13T22:50:39.716Z,16.80
2022-10-13T22:55:42.517Z,16.80
2022-10-13T23:00:44.156Z,16.70
2022-10-13T23:05:48.976Z,16.60
2022-10-13T23:10:50.661Z,16.50
2022-10-13T23:15:52.361Z,16.60
2022-10-13T23:20:56.882Z,16.30
2022-10-13T23:26:07.525Z,16.40
2022-10-13T23:31:12.397Z,16.30
2022-10-13T23:36:17.680Z,16.40
2022-10-13T23:41:19.437Z,16.80
2022-10-13T23:46:21.226Z,16.60
2022-10-13T23:51:24.926Z,16.30
2022-10-13T23:56:26.622Z,16.20
